sensor_id;sensor_type;location;lat;lon;timestamp;P1;durP1;ratioP1;P2;durP2;ratioP2
68923;SDS011;55961;52.156;20.942;2023-05-19T00:01:40;7.60;;;1.42;;
68923;SDS011;55961;52.156;20.942;2023-05-19T00:04:08;5.10;;;1.60;;
68923;SDS011;55961;52.156;20.942;2023-05-19T00:06:36;4.72;;;1.15;;
68923;SDS011;55961;52.156;20.942;2023-05-19T00:09:04;5.85;;;1.40;;
68923;SDS011;55961;52.156;20.942;2023-05-19T00:11:35;4.37;;;1.63;;
68923;SDS011;55961;52.156;20.942;2023-05-19T00:14:02;4.70;;;1.70;;
68923;SDS011;55961;52.156;20.942;2023-05-19T00:16:31;4.78;;;1.30;;
68923;SDS011;55961;52.156;20.942;2023-05-19T00:18:57;4.07;;;1.50;;
68923;SDS011;55961;52.156;20.942;2023-05-19T00:21:24;4.97;;;1.40;;
68923;SDS011;55961;52.156;20.942;2023-05-19T00:23:51;4.40;;;1.13;;
68923;SDS011;55961;52.156;20.942;2023-05-19T00:26:17;3.47;;;0.90;;
68923;SDS011;55961;52.156;20.942;2023-05-19T00:28:43;4.05;;;1.20;;
68923;SDS011;55961;52.156;20.942;2023-05-19T00:31:09;4.53;;;1.08;;
68923;SDS011;55961;52.156;20.942;2023-05-19T00:33:35;3.03;;;1.03;;
68923;SDS011;55961;52.156;20.942;2023-05-19T00:36:01;4.57;;;1.60;;
68923;SDS011;55961;52.156;20.942;2023-05-19T00:38:30;3.33;;;1.23;;
68923;SDS011;55961;52.156;20.942;2023-05-19T00:40:58;3.92;;;1.00;;
68923;SDS011;55961;52.156;20.942;2023-05-19T00:43:24;3.50;;;0.80;;
68923;SDS011;55961;52.156;20.942;2023-05-19T00:45:50;2.75;;;0.90;;
68923;SDS011;55961;52.156;20.942;2023-05-19T00:48:16;3.80;;;0.93;;
68923;SDS011;55961;52.156;20.942;2023-05-19T00:50:43;2.30;;;0.60;;
68923;SDS011;55961;52.156;20.942;2023-05-19T00:53:10;3.50;;;0.98;;
68923;SDS011;55961;52.156;20.942;2023-05-19T00:55:37;4.67;;;0.60;;
68923;SDS011;55961;52.156;20.942;2023-05-19T00:58:05;3.78;;;0.80;;
68923;SDS011;55961;52.156;20.942;2023-05-19T01:00:33;4.70;;;0.70;;
68923;SDS011;55961;52.156;20.942;2023-05-19T01:03:01;2.47;;;0.50;;
68923;SDS011;55961;52.156;20.942;2023-05-19T01:05:37;2.65;;;0.52;;
68923;SDS011;55961;52.156;20.942;2023-05-19T01:08:06;2.37;;;0.50;;
68923;SDS011;55961;52.156;20.942;2023-05-19T01:10:32;2.88;;;0.80;;
68923;SDS011;55961;52.156;20.942;2023-05-19T01:12:58;2.90;;;0.63;;
68923;SDS011;55961;52.156;20.942;2023-05-19T01:15:25;4.63;;;0.82;;
68923;SDS011;55961;52.156;20.942;2023-05-19T01:17:56;3.88;;;0.88;;
68923;SDS011;55961;52.156;20.942;2023-05-19T01:23:19;3.33;;;0.60;;
68923;SDS011;55961;52.156;20.942;2023-05-19T01:31:26;3.00;;;0.82;;
68923;SDS011;55961;52.156;20.942;2023-05-19T01:33:52;4.30;;;0.80;;
68923;SDS011;55961;52.156;20.942;2023-05-19T01:36:21;3.45;;;1.10;;
68923;SDS011;55961;52.156;20.942;2023-05-19T01:38:50;3.33;;;0.60;;
68923;SDS011;55961;52.156;20.942;2023-05-19T01:41:20;3.63;;;0.80;;
68923;SDS011;55961;52.156;20.942;2023-05-19T01:43:48;2.67;;;0.63;;
68923;SDS011;55961;52.156;20.942;2023-05-19T01:46:15;3.93;;;0.90;;
68923;SDS011;55961;52.156;20.942;2023-05-19T01:48:42;3.50;;;0.90;;
68923;SDS011;55961;52.156;20.942;2023-05-19T01:51:09;3.13;;;0.73;;
68923;SDS011;55961;52.156;20.942;2023-05-19T01:53:35;3.00;;;0.65;;
68923;SDS011;55961;52.156;20.942;2023-05-19T01:56:01;2.77;;;0.90;;
68923;SDS011;55961;52.156;20.942;2023-05-19T02:01:13;3.55;;;0.90;;
68923;SDS011;55961;52.156;20.942;2023-05-19T02:07:16;5.28;;;1.15;;
68923;SDS011;55961;52.156;20.942;2023-05-19T02:12:34;2.80;;;1.00;;
68923;SDS011;55961;52.156;20.942;2023-05-19T02:15:06;3.00;;;0.93;;
68923;SDS011;55961;52.156;20.942;2023-05-19T02:17:38;2.75;;;1.00;;
68923;SDS011;55961;52.156;20.942;2023-05-19T02:20:07;3.00;;;0.93;;
68923;SDS011;55961;52.156;20.942;2023-05-19T02:22:36;3.70;;;0.80;;
68923;SDS011;55961;52.156;20.942;2023-05-19T02:25:02;3.38;;;0.95;;
68923;SDS011;55961;52.156;20.942;2023-05-19T02:27:28;5.60;;;1.17;;
68923;SDS011;55961;52.156;20.942;2023-05-19T02:29:54;3.10;;;1.20;;
68923;SDS011;55961;52.156;20.942;2023-05-19T02:32:20;3.55;;;0.90;;
68923;SDS011;55961;52.156;20.942;2023-05-19T02:34:46;3.63;;;0.90;;
68923;SDS011;55961;52.156;20.942;2023-05-19T02:37:13;2.97;;;1.00;;
68923;SDS011;55961;52.156;20.942;2023-05-19T02:39:40;3.63;;;1.30;;
68923;SDS011;55961;52.156;20.942;2023-05-19T02:42:06;3.53;;;0.87;;
68923;SDS011;55961;52.156;20.942;2023-05-19T02:44:33;3.45;;;1.05;;
68923;SDS011;55961;52.156;20.942;2023-05-19T02:47:00;5.13;;;1.23;;
68923;SDS011;55961;52.156;20.942;2023-05-19T02:49:26;4.60;;;1.15;;
68923;SDS011;55961;52.156;20.942;2023-05-19T02:51:55;4.97;;;1.35;;
68923;SDS011;55961;52.156;20.942;2023-05-19T02:54:21;4.87;;;1.20;;
68923;SDS011;55961;52.156;20.942;2023-05-19T02:56:47;3.90;;;1.40;;
68923;SDS011;55961;52.156;20.942;2023-05-19T02:59:13;3.83;;;1.05;;
68923;SDS011;55961;52.156;20.942;2023-05-19T03:01:40;4.85;;;1.40;;
68923;SDS011;55961;52.156;20.942;2023-05-19T03:04:05;5.73;;;1.27;;
68923;SDS011;55961;52.156;20.942;2023-05-19T03:06:31;6.72;;;2.45;;
68923;SDS011;55961;52.156;20.942;2023-05-19T03:08:57;5.28;;;1.42;;
68923;SDS011;55961;52.156;20.942;2023-05-19T03:11:23;4.17;;;1.30;;
68923;SDS011;55961;52.156;20.942;2023-05-19T03:13:50;4.35;;;1.42;;
68923;SDS011;55961;52.156;20.942;2023-05-19T03:16:16;5.20;;;1.75;;
68923;SDS011;55961;52.156;20.942;2023-05-19T03:18:42;5.15;;;1.67;;
68923;SDS011;55961;52.156;20.942;2023-05-19T03:21:08;6.00;;;1.93;;
68923;SDS011;55961;52.156;20.942;2023-05-19T03:23:34;6.07;;;1.83;;
68923;SDS011;55961;52.156;20.942;2023-05-19T03:26:00;4.28;;;1.80;;
68923;SDS011;55961;52.156;20.942;2023-05-19T03:28:25;5.07;;;1.67;;
68923;SDS011;55961;52.156;20.942;2023-05-19T03:30:52;5.50;;;1.75;;
68923;SDS011;55961;52.156;20.942;2023-05-19T03:33:18;4.63;;;1.73;;
68923;SDS011;55961;52.156;20.942;2023-05-19T03:35:44;5.53;;;2.25;;
68923;SDS011;55961;52.156;20.942;2023-05-19T03:38:10;6.13;;;2.00;;
68923;SDS011;55961;52.156;20.942;2023-05-19T03:40:36;7.90;;;2.72;;
68923;SDS011;55961;52.156;20.942;2023-05-19T03:43:02;4.35;;;1.80;;
68923;SDS011;55961;52.156;20.942;2023-05-19T03:45:28;4.53;;;1.52;;
68923;SDS011;55961;52.156;20.942;2023-05-19T03:47:55;5.17;;;1.37;;
68923;SDS011;55961;52.156;20.942;2023-05-19T03:50:21;5.25;;;1.60;;
68923;SDS011;55961;52.156;20.942;2023-05-19T03:52:47;6.28;;;1.90;;
68923;SDS011;55961;52.156;20.942;2023-05-19T03:55:13;4.43;;;1.60;;
68923;SDS011;55961;52.156;20.942;2023-05-19T03:57:39;5.40;;;2.13;;
68923;SDS011;55961;52.156;20.942;2023-05-19T04:00:06;6.47;;;1.90;;
68923;SDS011;55961;52.156;20.942;2023-05-19T04:02:32;4.40;;;1.70;;
68923;SDS011;55961;52.156;20.942;2023-05-19T04:04:58;4.60;;;1.70;;
68923;SDS011;55961;52.156;20.942;2023-05-19T04:07:24;3.70;;;1.60;;
68923;SDS011;55961;52.156;20.942;2023-05-19T04:09:50;7.57;;;2.13;;
68923;SDS011;55961;52.156;20.942;2023-05-19T04:12:16;6.53;;;2.22;;
68923;SDS011;55961;52.156;20.942;2023-05-19T04:14:42;5.25;;;1.48;;
68923;SDS011;55961;52.156;20.942;2023-05-19T04:17:08;5.23;;;1.60;;
68923;SDS011;55961;52.156;20.942;2023-05-19T04:19:34;5.55;;;2.08;;
68923;SDS011;55961;52.156;20.942;2023-05-19T04:21:59;6.23;;;2.20;;
68923;SDS011;55961;52.156;20.942;2023-05-19T04:24:25;5.45;;;2.17;;
68923;SDS011;55961;52.156;20.942;2023-05-19T04:26:51;8.95;;;2.38;;
68923;SDS011;55961;52.156;20.942;2023-05-19T04:29:18;4.50;;;2.00;;
68923;SDS011;55961;52.156;20.942;2023-05-19T04:31:43;5.27;;;2.23;;
68923;SDS011;55961;52.156;20.942;2023-05-19T04:34:10;6.30;;;2.33;;
68923;SDS011;55961;52.156;20.942;2023-05-19T04:36:36;5.72;;;2.08;;
68923;SDS011;55961;52.156;20.942;2023-05-19T04:39:02;5.72;;;2.05;;
68923;SDS011;55961;52.156;20.942;2023-05-19T04:41:33;6.23;;;2.37;;
68923;SDS011;55961;52.156;20.942;2023-05-19T04:43:59;5.85;;;2.40;;
68923;SDS011;55961;52.156;20.942;2023-05-19T04:46:25;5.90;;;2.22;;
68923;SDS011;55961;52.156;20.942;2023-05-19T04:48:54;7.80;;;2.10;;
68923;SDS011;55961;52.156;20.942;2023-05-19T04:51:21;5.38;;;2.10;;
68923;SDS011;55961;52.156;20.942;2023-05-19T04:53:53;5.68;;;2.28;;
68923;SDS011;55961;52.156;20.942;2023-05-19T04:56:20;4.18;;;1.75;;
68923;SDS011;55961;52.156;20.942;2023-05-19T04:58:46;6.03;;;2.03;;
68923;SDS011;55961;52.156;20.942;2023-05-19T05:01:12;5.53;;;2.10;;
68923;SDS011;55961;52.156;20.942;2023-05-19T05:03:40;5.70;;;2.22;;
68923;SDS011;55961;52.156;20.942;2023-05-19T05:06:06;4.35;;;2.17;;
68923;SDS011;55961;52.156;20.942;2023-05-19T05:08:33;4.85;;;1.90;;
68923;SDS011;55961;52.156;20.942;2023-05-19T05:10:59;6.10;;;2.72;;
68923;SDS011;55961;52.156;20.942;2023-05-19T05:13:25;5.43;;;2.00;;
68923;SDS011;55961;52.156;20.942;2023-05-19T05:15:52;5.53;;;1.92;;
68923;SDS011;55961;52.156;20.942;2023-05-19T05:18:18;6.25;;;2.30;;
68923;SDS011;55961;52.156;20.942;2023-05-19T05:20:45;4.90;;;2.28;;
68923;SDS011;55961;52.156;20.942;2023-05-19T05:23:11;8.05;;;2.10;;
68923;SDS011;55961;52.156;20.942;2023-05-19T05:25:39;5.23;;;2.33;;
68923;SDS011;55961;52.156;20.942;2023-05-19T05:28:06;5.78;;;2.03;;
68923;SDS011;55961;52.156;20.942;2023-05-19T05:30:32;6.03;;;2.28;;
68923;SDS011;55961;52.156;20.942;2023-05-19T05:32:58;5.45;;;2.40;;
68923;SDS011;55961;52.156;20.942;2023-05-19T05:35:26;4.80;;;1.98;;
68923;SDS011;55961;52.156;20.942;2023-05-19T05:37:52;6.80;;;2.30;;
68923;SDS011;55961;52.156;20.942;2023-05-19T05:40:19;5.30;;;2.30;;
68923;SDS011;55961;52.156;20.942;2023-05-19T05:42:45;6.93;;;2.60;;
68923;SDS011;55961;52.156;20.942;2023-05-19T05:45:11;6.18;;;2.20;;
68923;SDS011;55961;52.156;20.942;2023-05-19T05:47:37;6.00;;;2.53;;
68923;SDS011;55961;52.156;20.942;2023-05-19T05:50:07;5.38;;;2.08;;
68923;SDS011;55961;52.156;20.942;2023-05-19T05:52:33;5.63;;;2.17;;
68923;SDS011;55961;52.156;20.942;2023-05-19T05:55:04;6.18;;;2.35;;
68923;SDS011;55961;52.156;20.942;2023-05-19T05:57:31;5.50;;;2.70;;
68923;SDS011;55961;52.156;20.942;2023-05-19T05:59:59;10.50;;;2.63;;
68923;SDS011;55961;52.156;20.942;2023-05-19T06:02:25;6.43;;;2.30;;
68923;SDS011;55961;52.156;20.942;2023-05-19T06:04:52;4.90;;;2.20;;
68923;SDS011;55961;52.156;20.942;2023-05-19T06:07:18;4.25;;;2.13;;
68923;SDS011;55961;52.156;20.942;2023-05-19T06:09:45;5.50;;;2.03;;
68923;SDS011;55961;52.156;20.942;2023-05-19T06:12:11;5.72;;;2.10;;
68923;SDS011;55961;52.156;20.942;2023-05-19T06:14:37;6.03;;;2.25;;
68923;SDS011;55961;52.156;20.942;2023-05-19T06:17:03;7.60;;;2.60;;
68923;SDS011;55961;52.156;20.942;2023-05-19T06:19:29;5.80;;;2.10;;
68923;SDS011;55961;52.156;20.942;2023-05-19T06:21:56;4.78;;;2.20;;
68923;SDS011;55961;52.156;20.942;2023-05-19T06:24:22;4.70;;;1.98;;
68923;SDS011;55961;52.156;20.942;2023-05-19T06:26:48;4.60;;;2.30;;
68923;SDS011;55961;52.156;20.942;2023-05-19T06:29:14;6.50;;;2.22;;
68923;SDS011;55961;52.156;20.942;2023-05-19T06:31:41;4.57;;;1.88;;
68923;SDS011;55961;52.156;20.942;2023-05-19T06:34:07;5.25;;;2.10;;
68923;SDS011;55961;52.156;20.942;2023-05-19T06:36:36;4.85;;;1.70;;
68923;SDS011;55961;52.156;20.942;2023-05-19T06:39:02;5.27;;;1.90;;
68923;SDS011;55961;52.156;20.942;2023-05-19T06:41:28;5.57;;;2.30;;
68923;SDS011;55961;52.156;20.942;2023-05-19T06:43:54;5.68;;;2.20;;
68923;SDS011;55961;52.156;20.942;2023-05-19T06:46:20;6.30;;;1.85;;
68923;SDS011;55961;52.156;20.942;2023-05-19T06:48:46;4.87;;;2.43;;
68923;SDS011;55961;52.156;20.942;2023-05-19T06:51:12;4.68;;;2.10;;
68923;SDS011;55961;52.156;20.942;2023-05-19T06:53:40;5.70;;;2.17;;
68923;SDS011;55961;52.156;20.942;2023-05-19T06:56:06;4.93;;;1.90;;
68923;SDS011;55961;52.156;20.942;2023-05-19T06:58:32;5.28;;;1.80;;
68923;SDS011;55961;52.156;20.942;2023-05-19T07:00:58;5.80;;;2.00;;
68923;SDS011;55961;52.156;20.942;2023-05-19T07:03:24;4.22;;;1.90;;
68923;SDS011;55961;52.156;20.942;2023-05-19T07:05:50;5.37;;;2.00;;
68923;SDS011;55961;52.156;20.942;2023-05-19T07:08:16;5.75;;;2.50;;
68923;SDS011;55961;52.156;20.942;2023-05-19T07:10:41;5.50;;;2.30;;
68923;SDS011;55961;52.156;20.942;2023-05-19T07:13:07;7.60;;;2.30;;
68923;SDS011;55961;52.156;20.942;2023-05-19T07:15:33;6.13;;;2.20;;
68923;SDS011;55961;52.156;20.942;2023-05-19T07:17:59;6.43;;;1.95;;
68923;SDS011;55961;52.156;20.942;2023-05-19T07:20:25;7.87;;;2.30;;
68923;SDS011;55961;52.156;20.942;2023-05-19T07:22:51;6.10;;;2.65;;
68923;SDS011;55961;52.156;20.942;2023-05-19T07:25:17;5.90;;;2.20;;
68923;SDS011;55961;52.156;20.942;2023-05-19T07:27:43;8.73;;;2.40;;
68923;SDS011;55961;52.156;20.942;2023-05-19T07:30:10;7.60;;;2.47;;
68923;SDS011;55961;52.156;20.942;2023-05-19T07:32:36;6.55;;;2.30;;
68923;SDS011;55961;52.156;20.942;2023-05-19T07:35:02;9.85;;;2.10;;
68923;SDS011;55961;52.156;20.942;2023-05-19T07:37:30;8.20;;;2.10;;
68923;SDS011;55961;52.156;20.942;2023-05-19T07:39:55;8.93;;;2.47;;
68923;SDS011;55961;52.156;20.942;2023-05-19T07:42:22;5.97;;;2.20;;
68923;SDS011;55961;52.156;20.942;2023-05-19T07:44:47;6.60;;;2.13;;
68923;SDS011;55961;52.156;20.942;2023-05-19T07:47:13;8.50;;;2.20;;
68923;SDS011;55961;52.156;20.942;2023-05-19T07:49:39;8.43;;;2.30;;
68923;SDS011;55961;52.156;20.942;2023-05-19T07:52:05;8.35;;;2.35;;
68923;SDS011;55961;52.156;20.942;2023-05-19T07:54:31;7.60;;;2.28;;
68923;SDS011;55961;52.156;20.942;2023-05-19T07:56:57;6.27;;;2.47;;
68923;SDS011;55961;52.156;20.942;2023-05-19T07:59:23;11.15;;;2.58;;
68923;SDS011;55961;52.156;20.942;2023-05-19T08:01:49;8.50;;;2.85;;
68923;SDS011;55961;52.156;20.942;2023-05-19T08:04:15;7.30;;;2.63;;
68923;SDS011;55961;52.156;20.942;2023-05-19T08:06:41;9.45;;;3.13;;
68923;SDS011;55961;52.156;20.942;2023-05-19T08:09:08;6.55;;;2.50;;
68923;SDS011;55961;52.156;20.942;2023-05-19T08:11:35;8.18;;;2.88;;
68923;SDS011;55961;52.156;20.942;2023-05-19T08:14:01;6.80;;;2.43;;
68923;SDS011;55961;52.156;20.942;2023-05-19T08:16:27;8.23;;;2.38;;
68923;SDS011;55961;52.156;20.942;2023-05-19T08:18:53;10.95;;;3.03;;
68923;SDS011;55961;52.156;20.942;2023-05-19T08:21:19;7.82;;;2.72;;
68923;SDS011;55961;52.156;20.942;2023-05-19T08:23:45;9.30;;;3.00;;
68923;SDS011;55961;52.156;20.942;2023-05-19T08:26:12;10.10;;;3.33;;
68923;SDS011;55961;52.156;20.942;2023-05-19T08:28:37;9.65;;;2.97;;
68923;SDS011;55961;52.156;20.942;2023-05-19T08:31:03;9.35;;;3.00;;
68923;SDS011;55961;52.156;20.942;2023-05-19T08:33:29;9.13;;;2.77;;
68923;SDS011;55961;52.156;20.942;2023-05-19T08:35:55;12.27;;;3.27;;
68923;SDS011;55961;52.156;20.942;2023-05-19T08:38:22;10.32;;;3.47;;
68923;SDS011;55961;52.156;20.942;2023-05-19T08:40:49;9.55;;;3.50;;
68923;SDS011;55961;52.156;20.942;2023-05-19T08:43:15;10.00;;;3.40;;
68923;SDS011;55961;52.156;20.942;2023-05-19T08:45:42;9.75;;;3.35;;
68923;SDS011;55961;52.156;20.942;2023-05-19T08:48:12;10.07;;;3.10;;
68923;SDS011;55961;52.156;20.942;2023-05-19T08:50:41;8.38;;;3.05;;
68923;SDS011;55961;52.156;20.942;2023-05-19T08:53:21;8.80;;;3.72;;
68923;SDS011;55961;52.156;20.942;2023-05-19T08:55:54;9.75;;;3.25;;
68923;SDS011;55961;52.156;20.942;2023-05-19T08:58:26;10.27;;;3.45;;
68923;SDS011;55961;52.156;20.942;2023-05-19T09:00:52;11.23;;;3.40;;
68923;SDS011;55961;52.156;20.942;2023-05-19T09:03:20;9.73;;;3.35;;
68923;SDS011;55961;52.156;20.942;2023-05-19T09:05:47;9.27;;;3.08;;
68923;SDS011;55961;52.156;20.942;2023-05-19T09:08:13;7.97;;;2.70;;
68923;SDS011;55961;52.156;20.942;2023-05-19T09:10:40;8.45;;;2.83;;
68923;SDS011;55961;52.156;20.942;2023-05-19T09:13:06;9.87;;;3.57;;
68923;SDS011;55961;52.156;20.942;2023-05-19T09:15:32;9.07;;;2.75;;
68923;SDS011;55961;52.156;20.942;2023-05-19T09:20:40;10.45;;;3.13;;
68923;SDS011;55961;52.156;20.942;2023-05-19T09:23:11;11.57;;;4.03;;
68923;SDS011;55961;52.156;20.942;2023-05-19T09:25:48;7.95;;;3.45;;
68923;SDS011;55961;52.156;20.942;2023-05-19T09:28:27;11.35;;;3.83;;
68923;SDS011;55961;52.156;20.942;2023-05-19T09:30:59;14.05;;;4.10;;
68923;SDS011;55961;52.156;20.942;2023-05-19T09:33:27;10.63;;;3.88;;
68923;SDS011;55961;52.156;20.942;2023-05-19T09:35:54;11.07;;;3.47;;
68923;SDS011;55961;52.156;20.942;2023-05-19T09:38:26;12.80;;;3.88;;
68923;SDS011;55961;52.156;20.942;2023-05-19T09:40:54;11.65;;;3.40;;
68923;SDS011;55961;52.156;20.942;2023-05-19T09:43:27;8.63;;;3.53;;
68923;SDS011;55961;52.156;20.942;2023-05-19T09:45:54;13.07;;;3.85;;
68923;SDS011;55961;52.156;20.942;2023-05-19T09:48:25;12.40;;;3.47;;
68923;SDS011;55961;52.156;20.942;2023-05-19T09:50:52;9.65;;;3.25;;
68923;SDS011;55961;52.156;20.942;2023-05-19T09:53:19;11.52;;;3.75;;
68923;SDS011;55961;52.156;20.942;2023-05-19T09:55:46;12.57;;;5.13;;
68923;SDS011;55961;52.156;20.942;2023-05-19T09:58:16;13.70;;;3.88;;
68923;SDS011;55961;52.156;20.942;2023-05-19T10:00:44;14.03;;;4.40;;
68923;SDS011;55961;52.156;20.942;2023-05-19T10:03:11;12.15;;;3.75;;
68923;SDS011;55961;52.156;20.942;2023-05-19T10:05:38;14.10;;;4.32;;
68923;SDS011;55961;52.156;20.942;2023-05-19T10:08:05;10.93;;;3.97;;
68923;SDS011;55961;52.156;20.942;2023-05-19T10:10:35;10.60;;;4.10;;
68923;SDS011;55961;52.156;20.942;2023-05-19T10:13:02;9.97;;;3.30;;
68923;SDS011;55961;52.156;20.942;2023-05-19T10:15:28;10.40;;;4.40;;
68923;SDS011;55961;52.156;20.942;2023-05-19T10:17:55;10.20;;;3.65;;
68923;SDS011;55961;52.156;20.942;2023-05-19T10:20:21;12.15;;;3.95;;
68923;SDS011;55961;52.156;20.942;2023-05-19T10:22:47;13.07;;;3.73;;
68923;SDS011;55961;52.156;20.942;2023-05-19T10:25:13;11.98;;;4.30;;
68923;SDS011;55961;52.156;20.942;2023-05-19T10:27:41;12.80;;;5.28;;
68923;SDS011;55961;52.156;20.942;2023-05-19T10:30:15;13.95;;;4.35;;
68923;SDS011;55961;52.156;20.942;2023-05-19T10:32:45;15.15;;;5.60;;
68923;SDS011;55961;52.156;20.942;2023-05-19T10:35:27;12.70;;;4.87;;
68923;SDS011;55961;52.156;20.942;2023-05-19T10:41:26;16.70;;;6.68;;
68923;SDS011;55961;52.156;20.942;2023-05-19T10:46:01;14.63;;;5.30;;
68923;SDS011;55961;52.156;20.942;2023-05-19T10:48:31;15.30;;;4.83;;
68923;SDS011;55961;52.156;20.942;2023-05-19T10:51:00;14.82;;;5.20;;
68923;SDS011;55961;52.156;20.942;2023-05-19T10:53:30;14.85;;;5.13;;
68923;SDS011;55961;52.156;20.942;2023-05-19T10:55:56;12.40;;;5.43;;
68923;SDS011;55961;52.156;20.942;2023-05-19T11:03:46;14.40;;;5.43;;
68923;SDS011;55961;52.156;20.942;2023-05-19T11:06:17;14.43;;;4.85;;
68923;SDS011;55961;52.156;20.942;2023-05-19T11:08:43;13.35;;;4.97;;
68923;SDS011;55961;52.156;20.942;2023-05-19T11:11:16;15.23;;;5.60;;
68923;SDS011;55961;52.156;20.942;2023-05-19T11:13:46;16.73;;;5.07;;
68923;SDS011;55961;52.156;20.942;2023-05-19T11:16:34;17.05;;;4.97;;
68923;SDS011;55961;52.156;20.942;2023-05-19T11:19:00;18.05;;;6.10;;
68923;SDS011;55961;52.156;20.942;2023-05-19T11:29:57;14.10;;;5.28;;
68923;SDS011;55961;52.156;20.942;2023-05-19T11:32:25;16.25;;;6.20;;
68923;SDS011;55961;52.156;20.942;2023-05-19T11:34:55;11.75;;;5.25;;
68923;SDS011;55961;52.156;20.942;2023-05-19T11:37:22;18.13;;;6.32;;
68923;SDS011;55961;52.156;20.942;2023-05-19T11:39:48;12.90;;;4.53;;
68923;SDS011;55961;52.156;20.942;2023-05-19T11:42:14;13.48;;;4.25;;
68923;SDS011;55961;52.156;20.942;2023-05-19T11:44:41;17.98;;;5.30;;
68923;SDS011;55961;52.156;20.942;2023-05-19T11:47:11;11.85;;;5.10;;
68923;SDS011;55961;52.156;20.942;2023-05-19T11:49:37;12.70;;;5.10;;
68923;SDS011;55961;52.156;20.942;2023-05-19T11:52:07;11.90;;;4.17;;
68923;SDS011;55961;52.156;20.942;2023-05-19T11:54:33;14.00;;;4.82;;
68923;SDS011;55961;52.156;20.942;2023-05-19T11:57:02;12.40;;;4.68;;
68923;SDS011;55961;52.156;20.942;2023-05-19T11:59:28;14.07;;;4.40;;
68923;SDS011;55961;52.156;20.942;2023-05-19T12:02:02;12.63;;;5.03;;
68923;SDS011;55961;52.156;20.942;2023-05-19T12:04:47;12.43;;;4.23;;
68923;SDS011;55961;52.156;20.942;2023-05-19T12:07:21;13.30;;;4.55;;
68923;SDS011;55961;52.156;20.942;2023-05-19T12:09:48;13.73;;;5.32;;
68923;SDS011;55961;52.156;20.942;2023-05-19T12:12:16;9.63;;;4.47;;
68923;SDS011;55961;52.156;20.942;2023-05-19T12:14:45;9.32;;;3.88;;
68923;SDS011;55961;52.156;20.942;2023-05-19T12:17:12;11.60;;;4.70;;
68923;SDS011;55961;52.156;20.942;2023-05-19T12:19:48;8.85;;;4.10;;
68923;SDS011;55961;52.156;20.942;2023-05-19T12:22:14;10.10;;;4.47;;
68923;SDS011;55961;52.156;20.942;2023-05-19T12:24:41;9.88;;;3.67;;
68923;SDS011;55961;52.156;20.942;2023-05-19T12:29:50;11.63;;;5.00;;
68923;SDS011;55961;52.156;20.942;2023-05-19T12:32:17;10.65;;;4.20;;
68923;SDS011;55961;52.156;20.942;2023-05-19T12:34:46;10.75;;;4.10;;
68923;SDS011;55961;52.156;20.942;2023-05-19T12:37:13;11.60;;;5.07;;
68923;SDS011;55961;52.156;20.942;2023-05-19T12:39:40;10.07;;;3.83;;
68923;SDS011;55961;52.156;20.942;2023-05-19T12:42:07;11.00;;;4.10;;
68923;SDS011;55961;52.156;20.942;2023-05-19T12:44:52;11.75;;;4.07;;
68923;SDS011;55961;52.156;20.942;2023-05-19T12:47:19;8.55;;;3.67;;
68923;SDS011;55961;52.156;20.942;2023-05-19T12:49:53;10.05;;;4.30;;
68923;SDS011;55961;52.156;20.942;2023-05-19T12:52:20;10.27;;;4.20;;
68923;SDS011;55961;52.156;20.942;2023-05-19T12:54:47;9.13;;;3.80;;
68923;SDS011;55961;52.156;20.942;2023-05-19T12:57:18;10.60;;;4.40;;
68923;SDS011;55961;52.156;20.942;2023-05-19T12:59:45;9.75;;;4.20;;
68923;SDS011;55961;52.156;20.942;2023-05-19T13:02:11;9.15;;;3.63;;
68923;SDS011;55961;52.156;20.942;2023-05-19T13:04:37;12.57;;;4.23;;
68923;SDS011;55961;52.156;20.942;2023-05-19T13:07:03;12.32;;;4.40;;
68923;SDS011;55961;52.156;20.942;2023-05-19T13:09:29;7.57;;;3.70;;
68923;SDS011;55961;52.156;20.942;2023-05-19T13:11:59;11.27;;;3.97;;
68923;SDS011;55961;52.156;20.942;2023-05-19T13:14:25;13.53;;;4.30;;
68923;SDS011;55961;52.156;20.942;2023-05-19T13:16:51;7.70;;;3.70;;
68923;SDS011;55961;52.156;20.942;2023-05-19T13:19:18;11.63;;;4.03;;
68923;SDS011;55961;52.156;20.942;2023-05-19T13:21:44;9.85;;;4.78;;
68923;SDS011;55961;52.156;20.942;2023-05-19T13:24:11;10.30;;;4.83;;
68923;SDS011;55961;52.156;20.942;2023-05-19T13:26:38;11.55;;;4.47;;
68923;SDS011;55961;52.156;20.942;2023-05-19T13:29:05;10.63;;;4.53;;
68923;SDS011;55961;52.156;20.942;2023-05-19T13:31:31;8.85;;;4.25;;
68923;SDS011;55961;52.156;20.942;2023-05-19T13:33:57;10.33;;;4.13;;
68923;SDS011;55961;52.156;20.942;2023-05-19T13:36:24;9.23;;;4.18;;
68923;SDS011;55961;52.156;20.942;2023-05-19T13:38:52;10.07;;;4.07;;
68923;SDS011;55961;52.156;20.942;2023-05-19T13:41:21;9.65;;;4.50;;
68923;SDS011;55961;52.156;20.942;2023-05-19T13:43:51;9.73;;;4.30;;
68923;SDS011;55961;52.156;20.942;2023-05-19T13:46:17;10.67;;;4.20;;
68923;SDS011;55961;52.156;20.942;2023-05-19T13:48:44;10.05;;;4.30;;
68923;SDS011;55961;52.156;20.942;2023-05-19T13:51:10;10.82;;;4.60;;
68923;SDS011;55961;52.156;20.942;2023-05-19T13:53:36;10.85;;;4.28;;
68923;SDS011;55961;52.156;20.942;2023-05-19T13:56:03;11.73;;;4.82;;
68923;SDS011;55961;52.156;20.942;2023-05-19T13:58:29;13.20;;;4.80;;
68923;SDS011;55961;52.156;20.942;2023-05-19T14:00:55;11.30;;;4.85;;
68923;SDS011;55961;52.156;20.942;2023-05-19T14:03:23;12.60;;;5.40;;
68923;SDS011;55961;52.156;20.942;2023-05-19T14:05:50;10.48;;;4.80;;
68923;SDS011;55961;52.156;20.942;2023-05-19T14:08:16;11.30;;;5.35;;
68923;SDS011;55961;52.156;20.942;2023-05-19T14:10:46;11.03;;;4.60;;
68923;SDS011;55961;52.156;20.942;2023-05-19T14:13:12;12.77;;;4.22;;
68923;SDS011;55961;52.156;20.942;2023-05-19T14:15:38;7.35;;;3.92;;
68923;SDS011;55961;52.156;20.942;2023-05-19T14:18:04;10.48;;;4.22;;
68923;SDS011;55961;52.156;20.942;2023-05-19T14:20:30;12.25;;;4.68;;
68923;SDS011;55961;52.156;20.942;2023-05-19T14:22:56;10.47;;;4.23;;
68923;SDS011;55961;52.156;20.942;2023-05-19T14:25:22;9.85;;;4.55;;
68923;SDS011;55961;52.156;20.942;2023-05-19T14:27:48;7.55;;;3.90;;
68923;SDS011;55961;52.156;20.942;2023-05-19T14:30:14;9.37;;;4.17;;
68923;SDS011;55961;52.156;20.942;2023-05-19T14:32:40;9.48;;;4.05;;
68923;SDS011;55961;52.156;20.942;2023-05-19T14:35:06;10.10;;;4.50;;
68923;SDS011;55961;52.156;20.942;2023-05-19T14:37:32;8.82;;;3.92;;
68923;SDS011;55961;52.156;20.942;2023-05-19T14:39:58;8.83;;;4.10;;
68923;SDS011;55961;52.156;20.942;2023-05-19T14:42:24;8.95;;;4.30;;
68923;SDS011;55961;52.156;20.942;2023-05-19T14:44:50;11.77;;;4.32;;
68923;SDS011;55961;52.156;20.942;2023-05-19T14:47:16;11.43;;;4.57;;
68923;SDS011;55961;52.156;20.942;2023-05-19T14:49:42;10.77;;;4.13;;
68923;SDS011;55961;52.156;20.942;2023-05-19T14:52:08;9.65;;;4.28;;
68923;SDS011;55961;52.156;20.942;2023-05-19T14:54:34;9.43;;;4.20;;
68923;SDS011;55961;52.156;20.942;2023-05-19T14:57:00;9.03;;;4.13;;
68923;SDS011;55961;52.156;20.942;2023-05-19T14:59:26;13.65;;;4.00;;
68923;SDS011;55961;52.156;20.942;2023-05-19T15:01:52;10.32;;;4.60;;
68923;SDS011;55961;52.156;20.942;2023-05-19T15:04:18;8.52;;;4.13;;
68923;SDS011;55961;52.156;20.942;2023-05-19T15:06:43;9.17;;;4.40;;
68923;SDS011;55961;52.156;20.942;2023-05-19T15:09:09;9.27;;;4.38;;
68923;SDS011;55961;52.156;20.942;2023-05-19T15:11:38;12.65;;;4.55;;
68923;SDS011;55961;52.156;20.942;2023-05-19T15:14:04;10.90;;;4.38;;